sensor_id;sensor_type;location;lat;lon;timestamp;pressure;altitude;pressure_sealevel;temperature;humidity
41862;BME280;27537;57.134;-2.136;2022-11-02T00:00:38;99437.06;;;8.86;100.00
41862;BME280;27537;57.134;-2.136;2022-11-02T00:03:06;99432.13;;;8.97;100.00
41862;BME280;27537;57.134;-2.136;2022-11-02T00:05:34;99416.69;;;8.92;100.00
41862;BME280;27537;57.134;-2.136;2022-11-02T00:08:01;99425.28;;;8.95;100.00
41862;BME280;27537;57.134;-2.136;2022-11-02T00:10:27;99405.75;;;8.68;100.00
41862;BME280;27537;57.134;-2.136;2022-11-02T00:12:55;99446.59;;;9.03;100.00
41862;BME280;27537;57.134;-2.136;2022-11-02T00:15:24;99415.84;;;8.92;100.00
41862;BME280;27537;57.134;-2.136;2022-11-02T00:18:00;99430.25;;;8.99;100.00
41862;BME280;27537;57.134;-2.136;2022-11-02T00:20:30;99431.88;;;9.02;100.00
41862;BME280;27537;57.134;-2.136;2022-11-02T00:22:59;99432.38;;;8.92;100.00
41862;BME280;27537;57.134;-2.136;2022-11-02T00:25:28;99449.34;;;8.84;100.00
41862;BME280;27537;57.134;-2.136;2022-11-02T00:27:55;99430.75;;;8.90;100.00
41862;BME280;27537;57.134;-2.136;2022-11-02T00:30:21;99397.44;;;8.78;100.00
41862;BME280;27537;57.134;-2.136;2022-11-02T00:32:49;99414.78;;;8.96;100.00
41862;BME280;27537;57.134;-2.136;2022-11-02T00:35:16;99453.88;;;9.13;100.00
41862;BME280;27537;57.134;-2.136;2022-11-02T00:37:43;99450.31;;;8.99;100.00
41862;BME280;27537;57.134;-2.136;2022-11-02T00:40:10;99448.31;;;9.04;100.00
41862;BME280;27537;57.134;-2.136;2022-11-02T00:42:37;99462.13;;;9.06;100.00
41862;BME280;27537;57.134;-2.136;2022-11-02T00:45:05;99456.69;;;9.10;100.00
41862;BME280;27537;57.134;-2.136;2022-11-02T00:47:32;99470.50;;;9.12;100.00
41862;BME280;27537;57.134;-2.136;2022-11-02T00:49:59;99442.81;;;8.92;100.00
41862;BME280;27537;57.134;-2.136;2022-11-02T00:52:26;99461.50;;;9.01;100.00
41862;BME280;27537;57.134;-2.136;2022-11-02T00:54:52;99458.47;;;8.92;100.00
41862;BME280;27537;57.134;-2.136;2022-11-02T00:57:19;99458.78;;;8.86;100.00
41862;BME280;27537;57.134;-2.136;2022-11-02T00:59:46;99458.00;;;8.84;100.00
41862;BME280;27537;57.134;-2.136;2022-11-02T01:02:12;99455.53;;;8.81;100.00
41862;BME280;27537;57.134;-2.136;2022-11-02T01:04:39;99434.31;;;8.71;100.00
41862;BME280;27537;57.134;-2.136;2022-11-02T01:07:06;99467.28;;;8.90;100.00
41862;BME280;27537;57.134;-2.136;2022-11-02T01:09:32;99475.13;;;8.72;100.00
41862;BME280;27537;57.134;-2.136;2022-11-02T01:12:00;99442.28;;;8.51;100.00
41862;BME280;27537;57.134;-2.136;2022-11-02T01:14:26;99471.06;;;8.67;100.00
41862;BME280;27537;57.134;-2.136;2022-11-02T01:16:53;99462.53;;;8.63;100.00
41862;BME280;27537;57.134;-2.136;2022-11-02T01:19:20;99443.63;;;8.41;100.00
41862;BME280;27537;57.134;-2.136;2022-11-02T01:21:47;99461.75;;;8.44;100.00
41862;BME280;27537;57.134;-2.136;2022-11-02T01:24:13;99453.28;;;8.39;100.00
41862;BME280;27537;57.134;-2.136;2022-11-02T01:26:40;99446.47;;;8.36;100.00
41862;BME280;27537;57.134;-2.136;2022-11-02T01:29:07;99477.34;;;8.45;100.00
41862;BME280;27537;57.134;-2.136;2022-11-02T01:31:34;99455.34;;;8.32;100.00
41862;BME280;27537;57.134;-2.136;2022-11-02T01:34:01;99454.78;;;8.44;100.00
41862;BME280;27537;57.134;-2.136;2022-11-02T01:36:27;99466.53;;;8.53;100.00
41862;BME280;27537;57.134;-2.136;2022-11-02T01:38:54;99438.09;;;8.29;100.00
41862;BME280;27537;57.134;-2.136;2022-11-02T01:41:21;99496.25;;;8.68;100.00
41862;BME280;27537;57.134;-2.136;2022-11-02T01:43:52;99470.00;;;8.53;100.00
41862;BME280;27537;57.134;-2.136;2022-11-02T01:46:29;99487.53;;;8.67;100.00
41862;BME280;27537;57.134;-2.136;2022-11-02T01:49:01;99510.00;;;8.89;100.00
41862;BME280;27537;57.134;-2.136;2022-11-02T01:51:35;99489.47;;;8.81;100.00
41862;BME280;27537;57.134;-2.136;2022-11-02T01:54:23;99510.00;;;8.89;100.00
41862;BME280;27537;57.134;-2.136;2022-11-02T01:56:54;99493.94;;;8.79;100.00
41862;BME280;27537;57.134;-2.136;2022-11-02T01:59:27;99502.06;;;8.90;100.00
41862;BME280;27537;57.134;-2.136;2022-11-02T02:01:56;99489.25;;;8.86;100.00
41862;BME280;27537;57.134;-2.136;2022-11-02T02:04:23;99480.13;;;8.77;100.00
41862;BME280;27537;57.134;-2.136;2022-11-02T02:06:53;99482.59;;;8.80;100.00
41862;BME280;27537;57.134;-2.136;2022-11-02T02:09:22;99482.41;;;8.83;100.00
41862;BME280;27537;57.134;-2.136;2022-11-02T02:11:49;99483.34;;;8.82;100.00
41862;BME280;27537;57.134;-2.136;2022-11-02T02:14:18;99503.97;;;9.04;100.00
41862;BME280;27537;57.134;-2.136;2022-11-02T02:24:38;99499.03;;;9.33;100.00
41862;BME280;27537;57.134;-2.136;2022-11-02T02:40:56;99521.69;;;9.15;100.00
41862;BME280;27537;57.134;-2.136;2022-11-02T02:43:33;99501.69;;;8.98;100.00
41862;BME280;27537;57.134;-2.136;2022-11-02T02:46:09;99524.63;;;9.26;100.00
41862;BME280;27537;57.134;-2.136;2022-11-02T02:48:40;99527.16;;;9.28;100.00
41862;BME280;27537;57.134;-2.136;2022-11-02T02:51:10;99539.66;;;9.39;100.00
41862;BME280;27537;57.134;-2.136;2022-11-02T02:53:49;99534.66;;;9.34;100.00
41862;BME280;27537;57.134;-2.136;2022-11-02T02:56:20;99515.00;;;9.27;100.00
41862;BME280;27537;57.134;-2.136;2022-11-02T02:59:01;99529.16;;;9.23;100.00
41862;BME280;27537;57.134;-2.136;2022-11-02T03:01:31;99538.00;;;9.20;100.00
41862;BME280;27537;57.134;-2.136;2022-11-02T03:03:58;99512.06;;;9.17;100.00
41862;BME280;27537;57.134;-2.136;2022-11-02T03:06:31;99547.44;;;9.23;100.00
41862;BME280;27537;57.134;-2.136;2022-11-02T03:11:53;99559.00;;;9.35;100.00
41862;BME280;27537;57.134;-2.136;2022-11-02T03:17:17;99559.31;;;9.46;100.00
41862;BME280;27537;57.134;-2.136;2022-11-02T03:19:55;99567.47;;;9.40;100.00
41862;BME280;27537;57.134;-2.136;2022-11-02T03:25:04;99574.63;;;9.36;100.00
41862;BME280;27537;57.134;-2.136;2022-11-02T03:27:38;99580.25;;;9.28;100.00
41862;BME280;27537;57.134;-2.136;2022-11-02T03:30:19;99567.03;;;9.31;100.00
41862;BME280;27537;57.134;-2.136;2022-11-02T03:33:05;99557.22;;;9.19;100.00
41862;BME280;27537;57.134;-2.136;2022-11-02T03:38:16;99580.84;;;9.51;100.00
41862;BME280;27537;57.134;-2.136;2022-11-02T03:40:47;99539.84;;;9.18;100.00
41862;BME280;27537;57.134;-2.136;2022-11-02T03:43:17;99561.97;;;9.28;100.00
41862;BME280;27537;57.134;-2.136;2022-11-02T03:45:52;99578.00;;;9.38;100.00
41862;BME280;27537;57.134;-2.136;2022-11-02T03:48:23;99583.41;;;9.18;100.00
41862;BME280;27537;57.134;-2.136;2022-11-02T03:50:52;99592.13;;;9.17;100.00
41862;BME280;27537;57.134;-2.136;2022-11-02T03:56:04;99580.25;;;9.11;100.00
41862;BME280;27537;57.134;-2.136;2022-11-02T03:58:32;99582.00;;;9.10;100.00
41862;BME280;27537;57.134;-2.136;2022-11-02T04:01:05;99599.28;;;9.13;100.00
41862;BME280;27537;57.134;-2.136;2022-11-02T04:03:42;99582.75;;;8.95;100.00
41862;BME280;27537;57.134;-2.136;2022-11-02T04:06:10;99596.72;;;8.94;100.00
41862;BME280;27537;57.134;-2.136;2022-11-02T04:08:40;99611.56;;;8.93;100.00
41862;BME280;27537;57.134;-2.136;2022-11-02T04:11:07;99574.09;;;8.58;100.00
41862;BME280;27537;57.134;-2.136;2022-11-02T04:13:53;99615.59;;;8.82;100.00
41862;BME280;27537;57.134;-2.136;2022-11-02T04:16:38;99582.78;;;8.40;100.00
41862;BME280;27537;57.134;-2.136;2022-11-02T04:19:05;99581.47;;;8.31;100.00
41862;BME280;27537;57.134;-2.136;2022-11-02T04:21:50;99609.72;;;8.40;100.00
41862;BME280;27537;57.134;-2.136;2022-11-02T04:24:35;99609.06;;;8.35;100.00
41862;BME280;27537;57.134;-2.136;2022-11-02T04:27:20;99615.84;;;8.39;100.00
41862;BME280;27537;57.134;-2.136;2022-11-02T04:29:47;99620.94;;;8.42;100.00
41862;BME280;27537;57.134;-2.136;2022-11-02T04:32:15;99614.66;;;8.46;100.00
41862;BME280;27537;57.134;-2.136;2022-11-02T04:35:02;99623.28;;;8.48;100.00
41862;BME280;27537;57.134;-2.136;2022-11-02T04:37:29;99609.28;;;8.30;100.00
41862;BME280;27537;57.134;-2.136;2022-11-02T04:40:15;99617.72;;;8.35;100.00
41862;BME280;27537;57.134;-2.136;2022-11-02T04:42:45;99627.97;;;8.40;100.00
41862;BME280;27537;57.134;-2.136;2022-11-02T04:45:12;99605.00;;;8.29;100.00
41862;BME280;27537;57.134;-2.136;2022-11-02T04:47:39;99632.53;;;8.35;100.00
41862;BME280;27537;57.134;-2.136;2022-11-02T04:50:06;99637.06;;;8.31;100.00
41862;BME280;27537;57.134;-2.136;2022-11-02T04:52:32;99625.00;;;8.10;100.00
41862;BME280;27537;57.134;-2.136;2022-11-02T04:54:59;99643.75;;;8.18;100.00
41862;BME280;27537;57.134;-2.136;2022-11-02T04:57:26;99631.53;;;7.99;100.00
41862;BME280;27537;57.134;-2.136;2022-11-02T04:59:53;99656.47;;;8.05;100.00
41862;BME280;27537;57.134;-2.136;2022-11-02T05:02:19;99668.13;;;8.17;100.00
41862;BME280;27537;57.134;-2.136;2022-11-02T05:04:46;99672.03;;;8.27;100.00
41862;BME280;27537;57.134;-2.136;2022-11-02T05:07:13;99683.47;;;8.44;100.00
41862;BME280;27537;57.134;-2.136;2022-11-02T05:09:40;99698.34;;;8.42;100.00
41862;BME280;27537;57.134;-2.136;2022-11-02T05:12:08;99680.56;;;8.31;100.00
41862;BME280;27537;57.134;-2.136;2022-11-02T05:14:34;99692.47;;;8.36;100.00
41862;BME280;27537;57.134;-2.136;2022-11-02T05:17:01;99660.97;;;8.02;100.00
41862;BME280;27537;57.134;-2.136;2022-11-02T05:19:28;99684.56;;;8.19;100.00
41862;BME280;27537;57.134;-2.136;2022-11-02T05:21:55;99674.66;;;8.07;100.00
41862;BME280;27537;57.134;-2.136;2022-11-02T05:24:22;99627.09;;;7.83;100.00
41862;BME280;27537;57.134;-2.136;2022-11-02T05:26:48;99687.38;;;8.14;100.00
41862;BME280;27537;57.134;-2.136;2022-11-02T05:29:19;99693.25;;;7.99;100.00
41862;BME280;27537;57.134;-2.136;2022-11-02T05:31:46;99674.44;;;7.92;100.00
41862;BME280;27537;57.134;-2.136;2022-11-02T05:34:12;99695.22;;;7.94;100.00
41862;BME280;27537;57.134;-2.136;2022-11-02T05:36:39;99662.47;;;7.47;100.00
41862;BME280;27537;57.134;-2.136;2022-11-02T05:39:06;99647.00;;;7.22;100.00
41862;BME280;27537;57.134;-2.136;2022-11-02T05:41:33;99690.19;;;7.48;100.00
41862;BME280;27537;57.134;-2.136;2022-11-02T05:44:00;99684.34;;;7.64;100.00
41862;BME280;27537;57.134;-2.136;2022-11-02T05:46:26;99680.50;;;7.72;100.00
41862;BME280;27537;57.134;-2.136;2022-11-02T05:48:53;99668.84;;;7.81;100.00
41862;BME280;27537;57.134;-2.136;2022-11-02T05:51:20;99707.25;;;7.96;100.00
41862;BME280;27537;57.134;-2.136;2022-11-02T05:53:46;99670.91;;;7.73;100.00
41862;BME280;27537;57.134;-2.136;2022-11-02T05:56:13;99720.38;;;7.74;100.00
41862;BME280;27537;57.134;-2.136;2022-11-02T05:58:43;99724.75;;;7.74;100.00
41862;BME280;27537;57.134;-2.136;2022-11-02T06:01:10;99698.72;;;7.52;100.00
41862;BME280;27537;57.134;-2.136;2022-11-02T06:03:37;99721.38;;;7.50;100.00
41862;BME280;27537;57.134;-2.136;2022-11-02T06:06:05;99698.78;;;7.30;100.00
41862;BME280;27537;57.134;-2.136;2022-11-02T06:08:33;99715.56;;;7.43;100.00
41862;BME280;27537;57.134;-2.136;2022-11-02T06:11:11;99713.47;;;7.31;100.00
41862;BME280;27537;57.134;-2.136;2022-11-02T06:13:39;99729.59;;;7.18;100.00
41862;BME280;27537;57.134;-2.136;2022-11-02T06:16:08;99742.28;;;7.04;100.00
41862;BME280;27537;57.134;-2.136;2022-11-02T06:18:37;99692.53;;;6.68;100.00
41862;BME280;27537;57.134;-2.136;2022-11-02T06:21:04;99720.03;;;6.97;100.00
41862;BME280;27537;57.134;-2.136;2022-11-02T06:23:32;99728.38;;;7.05;100.00
41862;BME280;27537;57.134;-2.136;2022-11-02T06:26:00;99717.59;;;7.14;100.00
41862;BME280;27537;57.134;-2.136;2022-11-02T06:28:27;99738.59;;;7.10;100.00
41862;BME280;27537;57.134;-2.136;2022-11-02T06:30:54;99747.13;;;7.13;100.00
41862;BME280;27537;57.134;-2.136;2022-11-02T06:33:22;99778.78;;;7.26;100.00
41862;BME280;27537;57.134;-2.136;2022-11-02T06:36:03;99803.47;;;7.38;100.00
41862;BME280;27537;57.134;-2.136;2022-11-02T06:38:45;99804.56;;;7.32;100.00
41862;BME280;27537;57.134;-2.136;2022-11-02T06:41:22;99746.72;;;7.02;100.00
41862;BME280;27537;57.134;-2.136;2022-11-02T06:44:03;99758.94;;;7.00;100.00
41862;BME280;27537;57.134;-2.136;2022-11-02T06:46:30;99735.56;;;6.98;100.00
41862;BME280;27537;57.134;-2.136;2022-11-02T06:48:58;99760.50;;;7.04;100.00
41862;BME280;27537;57.134;-2.136;2022-11-02T06:51:24;99758.38;;;7.15;100.00
41862;BME280;27537;57.134;-2.136;2022-11-02T06:53:51;99774.97;;;6.89;100.00
41862;BME280;27537;57.134;-2.136;2022-11-02T06:56:33;99746.63;;;6.81;100.00
41862;BME280;27537;57.134;-2.136;2022-11-02T06:59:00;99774.25;;;7.08;100.00
41862;BME280;27537;57.134;-2.136;2022-11-02T07:01:27;99772.56;;;7.07;100.00
41862;BME280;27537;57.134;-2.136;2022-11-02T07:03:55;99783.78;;;7.09;100.00
41862;BME280;27537;57.134;-2.136;2022-11-02T07:06:21;99744.38;;;6.96;100.00
41862;BME280;27537;57.134;-2.136;2022-11-02T07:08:48;99793.25;;;7.10;100.00
41862;BME280;27537;57.134;-2.136;2022-11-02T07:11:30;99818.59;;;7.28;100.00
41862;BME280;27537;57.134;-2.136;2022-11-02T07:14:10;99805.03;;;7.20;100.00
41862;BME280;27537;57.134;-2.136;2022-11-02T07:16:51;99830.91;;;7.25;100.00
41862;BME280;27537;57.134;-2.136;2022-11-02T07:19:32;99801.31;;;7.03;100.00
41862;BME280;27537;57.134;-2.136;2022-11-02T07:22:13;99825.69;;;7.25;100.00
41862;BME280;27537;57.134;-2.136;2022-11-02T07:24:54;99829.50;;;7.16;100.00
41862;BME280;27537;57.134;-2.136;2022-11-02T07:27:38;99815.13;;;7.28;100.00
41862;BME280;27537;57.134;-2.136;2022-11-02T07:30:19;99804.91;;;7.23;100.00
41862;BME280;27537;57.134;-2.136;2022-11-02T07:33:00;99823.72;;;7.31;100.00
41862;BME280;27537;57.134;-2.136;2022-11-02T07:35:42;99794.72;;;7.17;100.00
41862;BME280;27537;57.134;-2.136;2022-11-02T07:38:23;99778.25;;;6.94;100.00
41862;BME280;27537;57.134;-2.136;2022-11-02T07:41:03;99787.38;;;7.04;100.00
41862;BME280;27537;57.134;-2.136;2022-11-02T07:43:45;99831.84;;;7.22;100.00
41862;BME280;27537;57.134;-2.136;2022-11-02T07:46:25;99841.38;;;7.23;100.00
41862;BME280;27537;57.134;-2.136;2022-11-02T07:49:07;99831.13;;;7.18;100.00
41862;BME280;27537;57.134;-2.136;2022-11-02T07:51:47;99818.03;;;7.20;100.00
41862;BME280;27537;57.134;-2.136;2022-11-02T07:54:28;99813.88;;;6.92;100.00
41862;BME280;27537;57.134;-2.136;2022-11-02T07:57:09;99837.81;;;7.02;100.00
41862;BME280;27537;57.134;-2.136;2022-11-02T07:59:51;99814.03;;;7.11;100.00
41862;BME280;27537;57.134;-2.136;2022-11-02T08:02:33;99809.69;;;7.34;100.00
41862;BME280;27537;57.134;-2.136;2022-11-02T08:05:14;99807.78;;;7.39;100.00
41862;BME280;27537;57.134;-2.136;2022-11-02T08:08:05;99781.53;;;7.66;100.00
41862;BME280;27537;57.134;-2.136;2022-11-02T08:10:48;99804.75;;;8.33;100.00
41862;BME280;27537;57.134;-2.136;2022-11-02T08:13:29;99774.75;;;8.23;100.00
41862;BME280;27537;57.134;-2.136;2022-11-02T08:16:11;99767.47;;;8.71;100.00
41862;BME280;27537;57.134;-2.136;2022-11-02T08:18:53;99799.78;;;9.25;100.00
41862;BME280;27537;57.134;-2.136;2022-11-02T08:21:34;99787.38;;;9.67;100.00
41862;BME280;27537;57.134;-2.136;2022-11-02T08:24:15;99780.22;;;10.05;100.00
41862;BME280;27537;57.134;-2.136;2022-11-02T08:26:55;99774.06;;;10.41;100.00
41862;BME280;27537;57.134;-2.136;2022-11-02T08:29:36;99770.88;;;10.52;100.00
41862;BME280;27537;57.134;-2.136;2022-11-02T08:32:17;99767.00;;;10.59;100.00
41862;BME280;27537;57.134;-2.136;2022-11-02T08:34:58;99765.19;;;10.26;100.00
41862;BME280;27537;57.134;-2.136;2022-11-02T08:37:38;99741.91;;;10.04;100.00
41862;BME280;27537;57.134;-2.136;2022-11-02T08:40:20;99778.19;;;10.28;100.00
41862;BME280;27537;57.134;-2.136;2022-11-02T08:43:05;99790.53;;;9.91;100.00
41862;BME280;27537;57.134;-2.136;2022-11-02T08:45:45;99787.00;;;10.10;100.00
41862;BME280;27537;57.134;-2.136;2022-11-02T08:48:27;99787.09;;;9.37;100.00
41862;BME280;27537;57.134;-2.136;2022-11-02T08:51:08;99778.97;;;9.24;100.00
41862;BME280;27537;57.134;-2.136;2022-11-02T08:53:49;99757.63;;;8.97;100.00
41862;BME280;27537;57.134;-2.136;2022-11-02T08:56:30;99805.53;;;9.15;100.00
41862;BME280;27537;57.134;-2.136;2022-11-02T08:59:12;99805.81;;;8.89;100.00
41862;BME280;27537;57.134;-2.136;2022-11-02T09:01:53;99791.13;;;9.06;100.00
41862;BME280;27537;57.134;-2.136;2022-11-02T09:04:35;99795.78;;;8.80;100.00
41862;BME280;27537;57.134;-2.136;2022-11-02T09:07:16;99800.53;;;8.91;100.00
41862;BME280;27537;57.134;-2.136;2022-11-02T09:09:57;99798.47;;;8.79;100.00
41862;BME280;27537;57.134;-2.136;2022-11-02T09:12:38;99793.25;;;8.79;100.00
41862;BME280;27537;57.134;-2.136;2022-11-02T09:15:20;99811.78;;;8.72;100.00
41862;BME280;27537;57.134;-2.136;2022-11-02T09:18:03;99810.03;;;8.73;100.00
41862;BME280;27537;57.134;-2.136;2022-11-02T09:20:45;99802.91;;;8.77;100.00
41862;BME280;27537;57.134;-2.136;2022-11-02T09:23:27;99801.66;;;8.85;100.00
41862;BME280;27537;57.134;-2.136;2022-11-02T09:26:09;99786.69;;;8.89;100.00
41862;BME280;27537;57.134;-2.136;2022-11-02T09:28:50;99790.09;;;8.91;100.00
41862;BME280;27537;57.134;-2.136;2022-11-02T09:31:31;99798.13;;;9.05;100.00
41862;BME280;27537;57.134;-2.136;2022-11-02T09:34:12;99752.91;;;8.86;100.00
41862;BME280;27537;57.134;-2.136;2022-11-02T09:36:52;99784.41;;;8.81;100.00
41862;BME280;27537;57.134;-2.136;2022-11-02T09:39:34;99777.88;;;9.10;100.00
41862;BME280;27537;57.134;-2.136;2022-11-02T09:42:24;99773.22;;;9.17;100.00
41862;BME280;27537;57.134;-2.136;2022-11-02T09:45:15;99741.13;;;9.13;100.00
41862;BME280;27537;57.134;-2.136;2022-11-02T09:48:01;99744.81;;;9.09;100.00
41862;BME280;27537;57.134;-2.136;2022-11-02T09:50:56;99745.59;;;9.11;100.00
41862;BME280;27537;57.134;-2.136;2022-11-02T09:57:01;99708.34;;;9.08;100.00
41862;BME280;27537;57.134;-2.136;2022-11-02T09:59:45;99719.66;;;9.26;100.00
41862;BME280;27537;57.134;-2.136;2022-11-02T10:05:41;99693.78;;;9.21;100.00
41862;BME280;27537;57.134;-2.136;2022-11-02T10:11:47;99689.72;;;9.33;100.00
41862;BME280;27537;57.134;-2.136;2022-11-02T10:14:36;99686.81;;;9.74;100.00
41862;BME280;27537;57.134;-2.136;2022-11-02T10:17:26;99673.81;;;9.38;100.00
41862;BME280;27537;57.134;-2.136;2022-11-02T10:23:14;99651.47;;;8.96;100.00
41862;BME280;27537;57.134;-2.136;2022-11-02T10:25:57;99639.53;;;9.09;100.00
41862;BME280;27537;57.134;-2.136;2022-11-02T10:28:46;99637.63;;;9.12;100.00
41862;BME280;27537;57.134;-2.136;2022-11-02T10:31:33;99691.03;;;9.42;100.00
41862;BME280;27537;57.134;-2.136;2022-11-02T10:34:23;99690.47;;;9.70;100.00
41862;BME280;27537;57.134;-2.136;2022-11-02T10:46:26;99698.88;;;9.24;100.00
41862;BME280;27537;57.134;-2.136;2022-11-02T10:52:10;99639.06;;;9.18;100.00
41862;BME280;27537;57.134;-2.136;2022-11-02T10:54:52;99675.06;;;9.48;100.00
41862;BME280;27537;57.134;-2.136;2022-11-02T10:57:37;99621.09;;;9.29;100.00
41862;BME280;27537;57.134;-2.136;2022-11-02T11:00:45;99654.16;;;9.48;100.00
41862;BME280;27537;57.134;-2.136;2022-11-02T11:03:27;99645.16;;;9.54;100.00
41862;BME280;27537;57.134;-2.136;2022-11-02T11:06:08;99627.13;;;9.65;100.00
41862;BME280;27537;57.134;-2.136;2022-11-02T11:08:58;99589.19;;;9.58;100.00
41862;BME280;27537;57.134;-2.136;2022-11-02T11:11:40;99617.56;;;9.65;100.00
41862;BME280;27537;57.134;-2.136;2022-11-02T11:14:21;99598.97;;;9.87;100.00
41862;BME280;27537;57.134;-2.136;2022-11-02T11:17:34;99580.97;;;9.99;100.00
41862;BME280;27537;57.134;-2.136;2022-11-02T11:20:32;99570.63;;;10.45;100.00
41862;BME280;27537;57.134;-2.136;2022-11-02T11:26:04;99545.28;;;10.61;100.00
41862;BME280;27537;57.134;-2.136;2022-11-02T11:28:54;99536.38;;;10.64;100.00
41862;BME280;27537;57.134;-2.136;2022-11-02T11:31:35;99518.25;;;10.61;100.00
41862;BME280;27537;57.134;-2.136;2022-11-02T11:34:25;99473.19;;;10.56;100.00
41862;BME280;27537;57.134;-2.136;2022-11-02T11:37:08;99514.38;;;10.68;100.00
41862;BME280;27537;57.134;-2.136;2022-11-02T11:39:53;99523.25;;;10.80;100.00
41862;BME280;27537;57.134;-2.136;2022-11-02T11:42:36;99519.75;;;10.65;100.00
41862;BME280;27537;57.134;-2.136;2022-11-02T11:45:27;99506.59;;;10.67;100.00
41862;BME280;27537;57.134;-2.136;2022-11-02T11:50:50;99498.09;;;11.36;100.00
41862;BME280;27537;57.134;-2.136;2022-11-02T11:53:31;99443.66;;;11.27;100.00
41862;BME280;27537;57.134;-2.136;2022-11-02T11:56:24;99482.78;;;11.30;100.00
41862;BME280;27537;57.134;-2.136;2022-11-02T12:02:27;99439.22;;;11.71;100.00
41862;BME280;27537;57.134;-2.136;2022-11-02T12:05:16;99424.84;;;11.49;100.00
41862;BME280;27537;57.134;-2.136;2022-11-02T12:16:59;99380.41;;;11.33;100.00
41862;BME280;27537;57.134;-2.136;2022-11-02T12:20:12;99426.44;;;11.37;100.00
41862;BME280;27537;57.134;-2.136;2022-11-02T12:32:30;99397.41;;;11.40;100.00
41862;BME280;27537;57.134;-2.136;2022-11-02T12:38:43;99382.34;;;11.44;100.00
41862;BME280;27537;57.134;-2.136;2022-11-02T12:44:57;99359.25;;;11.22;100.00
41862;BME280;27537;57.134;-2.136;2022-11-02T12:47:47;99343.34;;;11.25;100.00
41862;BME280;27537;57.134;-2.136;2022-11-02T12:50:54;99323.75;;;10.75;100.00
41862;BME280;27537;57.134;-2.136;2022-11-02T12:53:55;99259.56;;;10.68;100.00
41862;BME280;27537;57.134;-2.136;2022-11-02T12:56:46;99251.13;;;11.06;100.00
41862;BME280;27537;57.134;-2.136;2022-11-02T12:59:31;99265.28;;;10.74;100.00
41862;BME280;27537;57.134;-2.136;2022-11-02T13:02:20;99264.38;;;10.75;100.00
41862;BME280;27537;57.134;-2.136;2022-11-02T13:05:12;99262.47;;;10.92;100.00
41862;BME280;27537;57.134;-2.136;2022-11-02T13:08:11;99244.66;;;10.70;100.00
41862;BME280;27537;57.134;-2.136;2022-11-02T13:10:57;99226.53;;;10.94;100.00
41862;BME280;27537;57.134;-2.136;2022-11-02T13:13:49;99188.53;;;10.74;100.00
41862;BME280;27537;57.134;-2.136;2022-11-02T13:19:28;99155.59;;;10.84;100.00
41862;BME280;27537;57.134;-2.136;2022-11-02T13:21:57;99174.66;;;11.13;100.00
41862;BME280;27537;57.134;-2.136;2022-11-02T13:24:30;99179.03;;;11.00;100.00
41862;BME280;27537;57.134;-2.136;2022-11-02T13:27:01;99182.56;;;10.99;100.00
41862;BME280;27537;57.134;-2.136;2022-11-02T13:29:44;99159.06;;;10.85;100.00
41862;BME280;27537;57.134;-2.136;2022-11-02T13:32:27;99145.91;;;10.99;100.00
41862;BME280;27537;57.134;-2.136;2022-11-02T13:35:04;99144.56;;;11.06;100.00
41862;BME280;27537;57.134;-2.136;2022-11-02T13:37:36;99126.16;;;11.08;100.00
41862;BME280;27537;57.134;-2.136;2022-11-02T13:40:13;99128.16;;;11.17;100.00
41862;BME280;27537;57.134;-2.136;2022-11-02T13:43:25;99110.34;;;11.09;100.00
41862;BME280;27537;57.134;-2.136;2022-11-02T13:50:57;99079.13;;;10.79;100.00
41862;BME280;27537;57.134;-2.136;2022-11-02T13:53:33;99073.03;;;11.06;100.00
41862;BME280;27537;57.134;-2.136;2022-11-02T13:56:10;99062.00;;;11.00;100.00
41862;BME280;27537;57.134;-2.136;2022-11-02T13:58:46;99045.56;;;10.98;100.00
41862;BME280;27537;57.134;-2.136;2022-11-02T14:01:16;99023.31;;;10.78;100.00
41862;BME280;27537;57.134;-2.136;2022-11-02T14:06:13;99021.16;;;10.98;100.00
41862;BME280;27537;57.134;-2.136;2022-11-02T14:08:51;98984.91;;;10.92;100.00
41862;BME280;27537;57.134;-2.136;2022-11-02T14:19:24;98972.44;;;11.08;100.00
41862;BME280;27537;57.134;-2.136;2022-11-02T14:22:12;98978.00;;;11.04;100.00
41862;BME280;27537;57.134;-2.136;2022-11-02T14:46:51;98839.97;;;10.93;100.00
41862;BME280;27537;57.134;-2.136;2022-11-02T14:49:30;98806.56;;;10.71;100.00
41862;BME280;27537;57.134;-2.136;2022-11-02T14:54:32;98776.72;;;10.48;100.00
41862;BME280;27537;57.134;-2.136;2022-11-02T14:59:49;98749.94;;;10.70;100.00
41862;BME280;27537;57.134;-2.136;2022-11-02T15:02:37;98749.91;;;10.82;100.00
41862;BME280;27537;57.134;-2.136;2022-11-02T15:05:22;98752.22;;;10.74;100.00
41862;BME280;27537;57.134;-2.136;2022-11-02T15:08:05;98716.59;;;10.85;100.00
41862;BME280;27537;57.134;-2.136;2022-11-02T15:10:53;98698.41;;;10.70;100.00
41862;BME280;27537;57.134;-2.136;2022-11-02T15:23:52;98631.31;;;10.93;100.00
41862;BME280;27537;57.134;-2.136;2022-11-02T15:29:33;98638.50;;;10.78;100.00
41862;BME280;27537;57.134;-2.136;2022-11-02T15:32:04;98593.84;;;10.69;100.00
41862;BME280;27537;57.134;-2.136;2022-11-02T15:34:35;98573.47;;;10.61;100.00
41862;BME280;27537;57.134;-2.136;2022-11-02T15:37:06;98517.28;;;10.54;100.00
41862;BME280;27537;57.134;-2.136;2022-11-02T15:39:34;98551.06;;;10.57;100.00
41862;BME280;27537;57.134;-2.136;2022-11-02T15:42:09;98580.53;;;10.72;100.00
41862;BME280;27537;57.134;-2.136;2022-11-02T15:50:22;98466.38;;;10.58;100.00
41862;BME280;27537;57.134;-2.136;2022-11-02T16:01:24;98500.31;;;10.95;100.00
41862;BME280;27537;57.134;-2.136;2022-11-02T16:03:54;98443.84;;;10.79;100.00
41862;BME280;27537;57.134;-2.136;2022-11-02T16:06:29;98457.44;;;10.96;100.00
41862;BME280;27537;57.134;-2.136;2022-11-02T16:09:00;98428.56;;;11.09;100.00
41862;BME280;27537;57.134;-2.136;2022-11-02T16:11:28;98406.56;;;11.23;100.00
41862;BME280;27537;57.134;-2.136;2022-11-02T16:14:22;98405.47;;;11.25;100.00
41862;BME280;27537;57.134;-2.136;2022-11-02T16:16:50;98350.47;;;11.02;100.00
41862;BME280;27537;57.134;-2.136;2022-11-02T16:19:19;98388.09;;;11.35;100.00
41862;BME280;27537;57.134;-2.136;2022-11-02T16:21:57;98347.84;;;11.02;100.00